sensor_id;sensor_type;location;lat;lon;timestamp;P1;durP1;ratioP1;P2;durP2;ratioP2
49556;SDS011;35462;45.048;7.666;2023-12-28T00:06:25;28.57;;;21.10;;
49556;SDS011;35462;45.048;7.666;2023-12-28T00:21:44;24.83;;;19.80;;
49556;SDS011;35462;45.048;7.666;2023-12-28T00:37:04;28.53;;;19.83;;
49556;SDS011;35462;45.048;7.666;2023-12-28T00:52:23;27.20;;;20.53;;
49556;SDS011;35462;45.048;7.666;2023-12-28T01:07:43;27.90;;;21.40;;
49556;SDS011;35462;45.048;7.666;2023-12-28T01:23:02;31.50;;;20.43;;
49556;SDS011;35462;45.048;7.666;2023-12-28T01:38:22;29.67;;;21.37;;
49556;SDS011;35462;45.048;7.666;2023-12-28T01:53:42;28.23;;;20.33;;
49556;SDS011;35462;45.048;7.666;2023-12-28T02:09:02;30.95;;;19.27;;
49556;SDS011;35462;45.048;7.666;2023-12-28T02:24:22;36.13;;;21.27;;
49556;SDS011;35462;45.048;7.666;2023-12-28T02:39:41;30.20;;;20.10;;
49556;SDS011;35462;45.048;7.666;2023-12-28T02:55:03;28.95;;;20.10;;
49556;SDS011;35462;45.048;7.666;2023-12-28T03:10:22;29.60;;;20.77;;
49556;SDS011;35462;45.048;7.666;2023-12-28T03:25:42;30.17;;;20.50;;
49556;SDS011;35462;45.048;7.666;2023-12-28T03:41:01;32.70;;;23.17;;
49556;SDS011;35462;45.048;7.666;2023-12-28T03:56:22;34.67;;;23.77;;
49556;SDS011;35462;45.048;7.666;2023-12-28T04:11:42;34.65;;;22.08;;
49556;SDS011;35462;45.048;7.666;2023-12-28T04:27:02;32.30;;;22.40;;
49556;SDS011;35462;45.048;7.666;2023-12-28T04:42:22;30.07;;;21.03;;
49556;SDS011;35462;45.048;7.666;2023-12-28T04:57:41;32.47;;;21.30;;
49556;SDS011;35462;45.048;7.666;2023-12-28T05:13:01;28.40;;;20.40;;
49556;SDS011;35462;45.048;7.666;2023-12-28T05:28:20;31.67;;;22.73;;
49556;SDS011;35462;45.048;7.666;2023-12-28T05:43:40;33.57;;;22.47;;
49556;SDS011;35462;45.048;7.666;2023-12-28T05:58:59;35.83;;;21.63;;
49556;SDS011;35462;45.048;7.666;2023-12-28T06:29:38;32.38;;;21.10;;
49556;SDS011;35462;45.048;7.666;2023-12-28T06:44:58;29.23;;;20.83;;
49556;SDS011;35462;45.048;7.666;2023-12-28T07:00:17;29.03;;;20.93;;
49556;SDS011;35462;45.048;7.666;2023-12-28T07:15:37;30.30;;;19.77;;
49556;SDS011;35462;45.048;7.666;2023-12-28T07:30:56;30.00;;;21.60;;
49556;SDS011;35462;45.048;7.666;2023-12-28T07:46:16;36.35;;;21.27;;
49556;SDS011;35462;45.048;7.666;2023-12-28T08:01:35;32.43;;;21.00;;
49556;SDS011;35462;45.048;7.666;2023-12-28T08:16:55;28.83;;;21.17;;
49556;SDS011;35462;45.048;7.666;2023-12-28T08:32:14;30.63;;;21.57;;
49556;SDS011;35462;45.048;7.666;2023-12-28T08:47:34;36.00;;;21.77;;
49556;SDS011;35462;45.048;7.666;2023-12-28T09:02:53;31.73;;;22.23;;
49556;SDS011;35462;45.048;7.666;2023-12-28T09:33:33;32.17;;;21.95;;
49556;SDS011;35462;45.048;7.666;2023-12-28T09:48:52;31.17;;;22.03;;
49556;SDS011;35462;45.048;7.666;2023-12-28T10:04:15;34.70;;;22.88;;
49556;SDS011;35462;45.048;7.666;2023-12-28T10:19:36;29.98;;;22.88;;
49556;SDS011;35462;45.048;7.666;2023-12-28T10:34:56;36.38;;;23.05;;
49556;SDS011;35462;45.048;7.666;2023-12-28T10:50:16;43.60;;;22.03;;
49556;SDS011;35462;45.048;7.666;2023-12-28T11:05:35;27.23;;;20.08;;
49556;SDS011;35462;45.048;7.666;2023-12-28T11:20:59;33.75;;;20.50;;
49556;SDS011;35462;45.048;7.666;2023-12-28T11:36:54;26.42;;;19.25;;
49556;SDS011;35462;45.048;7.666;2023-12-28T11:52:08;29.40;;;17.77;;
49556;SDS011;35462;45.048;7.666;2023-12-28T12:07:30;32.70;;;20.98;;
49556;SDS011;35462;45.048;7.666;2023-12-28T12:22:49;28.87;;;20.17;;
49556;SDS011;35462;45.048;7.666;2023-12-28T12:53:37;35.53;;;23.17;;
49556;SDS011;35462;45.048;7.666;2023-12-28T13:08:57;33.77;;;23.13;;
49556;SDS011;35462;45.048;7.666;2023-12-28T13:24:17;36.08;;;26.17;;
49556;SDS011;35462;45.048;7.666;2023-12-28T13:39:37;34.03;;;24.25;;
49556;SDS011;35462;45.048;7.666;2023-12-28T13:54:57;31.63;;;21.88;;
49556;SDS011;35462;45.048;7.666;2023-12-28T14:25:36;42.72;;;24.30;;
49556;SDS011;35462;45.048;7.666;2023-12-28T14:40:56;39.50;;;25.52;;
49556;SDS011;35462;45.048;7.666;2023-12-28T14:56:16;30.38;;;24.67;;
49556;SDS011;35462;45.048;7.666;2023-12-28T15:11:35;36.20;;;24.03;;
49556;SDS011;35462;45.048;7.666;2023-12-28T15:26:56;31.55;;;24.77;;
49556;SDS011;35462;45.048;7.666;2023-12-28T15:42:18;35.17;;;25.05;;
49556;SDS011;35462;45.048;7.666;2023-12-28T16:12:57;32.58;;;22.27;;
49556;SDS011;35462;45.048;7.666;2023-12-28T16:28:17;31.92;;;24.15;;
49556;SDS011;35462;45.048;7.666;2023-12-28T16:43:37;38.50;;;24.13;;
49556;SDS011;35462;45.048;7.666;2023-12-28T16:58:57;37.05;;;25.33;;
49556;SDS011;35462;45.048;7.666;2023-12-28T17:14:17;36.00;;;24.53;;
49556;SDS011;35462;45.048;7.666;2023-12-28T17:44:58;40.40;;;24.10;;
49556;SDS011;35462;45.048;7.666;2023-12-28T18:00:18;36.40;;;25.65;;
49556;SDS011;35462;45.048;7.666;2023-12-28T18:15:38;32.50;;;24.73;;
49556;SDS011;35462;45.048;7.666;2023-12-28T18:30:57;35.03;;;23.67;;
49556;SDS011;35462;45.048;7.666;2023-12-28T18:46:17;30.90;;;20.93;;
49556;SDS011;35462;45.048;7.666;2023-12-28T19:16:55;35.28;;;23.25;;
49556;SDS011;35462;45.048;7.666;2023-12-28T19:32:18;44.30;;;25.98;;
49556;SDS011;35462;45.048;7.666;2023-12-28T20:02:58;64.13;;;42.40;;
49556;SDS011;35462;45.048;7.666;2023-12-28T20:18:17;37.23;;;25.23;;
49556;SDS011;35462;45.048;7.666;2023-12-28T20:33:36;37.73;;;27.40;;
49556;SDS011;35462;45.048;7.666;2023-12-28T20:48:56;39.47;;;27.38;;
49556;SDS011;35462;45.048;7.666;2023-12-28T21:04:17;44.72;;;29.35;;
49556;SDS011;35462;45.048;7.666;2023-12-28T21:19:37;43.17;;;29.90;;
49556;SDS011;35462;45.048;7.666;2023-12-28T21:34:57;46.70;;;28.85;;
49556;SDS011;35462;45.048;7.666;2023-12-28T21:50:16;44.63;;;30.07;;
49556;SDS011;35462;45.048;7.666;2023-12-28T22:05:36;42.15;;;28.85;;
49556;SDS011;35462;45.048;7.666;2023-12-28T22:20:58;42.33;;;29.67;;
49556;SDS011;35462;45.048;7.666;2023-12-28T22:36:17;43.33;;;29.93;;
49556;SDS011;35462;45.048;7.666;2023-12-28T22:51:37;48.77;;;32.33;;
49556;SDS011;35462;45.048;7.666;2023-12-28T23:22:16;43.97;;;31.52;;
49556;SDS011;35462;45.048;7.666;2023-12-28T23:37:36;44.83;;;34.00;;
49556;SDS011;35462;45.048;7.666;2023-12-28T23:52:58;46.00;;;34.38;;
